sensor_id;sensor_type;location;lat;lon;timestamp;temperature;humidity
1055;DHT22;516;51.482;7.120;2023-02-21T00:02:13;8.40;99.90
1055;DHT22;516;51.482;7.120;2023-02-21T00:08:19;8.40;99.90
1055;DHT22;516;51.482;7.120;2023-02-21T00:14:25;8.40;99.90
1055;DHT22;516;51.482;7.120;2023-02-21T00:24:06;8.40;99.90
1055;DHT22;516;51.482;7.120;2023-02-21T00:30:14;8.40;99.90
1055;DHT22;516;51.482;7.120;2023-02-21T00:36:20;8.40;99.90
1055;DHT22;516;51.482;7.120;2023-02-21T00:42:26;8.40;99.90
1055;DHT22;516;51.482;7.120;2023-02-21T00:48:32;8.30;99.90
1055;DHT22;516;51.482;7.120;2023-02-21T00:54:39;8.30;99.90
1055;DHT22;516;51.482;7.120;2023-02-21T01:00:45;8.30;99.90
1055;DHT22;516;51.482;7.120;2023-02-21T01:06:51;8.30;99.90
1055;DHT22;516;51.482;7.120;2023-02-21T01:12:57;8.30;99.90
1055;DHT22;516;51.482;7.120;2023-02-21T01:19:04;8.30;99.90
1055;DHT22;516;51.482;7.120;2023-02-21T01:25:10;8.30;99.90
1055;DHT22;516;51.482;7.120;2023-02-21T01:31:17;8.30;99.90
1055;DHT22;516;51.482;7.120;2023-02-21T01:37:24;8.30;99.90
1055;DHT22;516;51.482;7.120;2023-02-21T01:43:30;8.30;99.90
1055;DHT22;516;51.482;7.120;2023-02-21T01:49:38;8.20;99.90
1055;DHT22;516;51.482;7.120;2023-02-21T01:55:46;8.20;99.90
1055;DHT22;516;51.482;7.120;2023-02-21T02:01:59;8.20;99.90
1055;DHT22;516;51.482;7.120;2023-02-21T02:08:07;8.20;99.90
1055;DHT22;516;51.482;7.120;2023-02-21T02:40:46;8.20;99.90
1055;DHT22;516;51.482;7.120;2023-02-21T02:47:02;8.20;99.90
1055;DHT22;516;51.482;7.120;2023-02-21T02:52:54;8.20;99.90
1055;DHT22;516;51.482;7.120;2023-02-21T03:05:27;8.20;99.90
1055;DHT22;516;51.482;7.120;2023-02-21T03:11:46;8.10;99.90
1055;DHT22;516;51.482;7.120;2023-02-21T03:18:10;8.00;99.90
1055;DHT22;516;51.482;7.120;2023-02-21T03:24:19;8.00;99.90
1055;DHT22;516;51.482;7.120;2023-02-21T03:27:09;8.00;99.90
1055;DHT22;516;51.482;7.120;2023-02-21T03:32:57;8.00;99.90
1055;DHT22;516;51.482;7.120;2023-02-21T03:38:45;8.00;99.90
1055;DHT22;516;51.482;7.120;2023-02-21T03:44:32;8.00;99.90
1055;DHT22;516;51.482;7.120;2023-02-21T03:50:20;8.00;99.90
1055;DHT22;516;51.482;7.120;2023-02-21T03:56:08;8.00;99.90
1055;DHT22;516;51.482;7.120;2023-02-21T04:01:56;7.90;99.90
1055;DHT22;516;51.482;7.120;2023-02-21T04:07:44;8.00;99.90
1055;DHT22;516;51.482;7.120;2023-02-21T04:13:33;7.90;99.90
1055;DHT22;516;51.482;7.120;2023-02-21T04:19:20;7.90;99.90
1055;DHT22;516;51.482;7.120;2023-02-21T04:25:02;7.90;99.90
1055;DHT22;516;51.482;7.120;2023-02-21T04:30:50;7.90;99.90
1055;DHT22;516;51.482;7.120;2023-02-21T04:36:38;7.90;99.90
1055;DHT22;516;51.482;7.120;2023-02-21T04:42:26;7.90;99.90
1055;DHT22;516;51.482;7.120;2023-02-21T04:48:14;7.90;99.90
1055;DHT22;516;51.482;7.120;2023-02-21T04:54:01;7.80;99.90
1055;DHT22;516;51.482;7.120;2023-02-21T04:59:55;7.80;99.90
1055;DHT22;516;51.482;7.120;2023-02-21T05:05:43;7.80;99.90
1055;DHT22;516;51.482;7.120;2023-02-21T05:11:33;7.80;99.90
1055;DHT22;516;51.482;7.120;2023-02-21T05:17:24;7.80;99.90
1055;DHT22;516;51.482;7.120;2023-02-21T05:27:08;7.80;99.90
1055;DHT22;516;51.482;7.120;2023-02-21T05:33:02;7.90;99.90
1055;DHT22;516;51.482;7.120;2023-02-21T05:38:52;7.90;99.90
1055;DHT22;516;51.482;7.120;2023-02-21T05:44:44;7.80;99.90
1055;DHT22;516;51.482;7.120;2023-02-21T05:50:31;7.80;99.90
1055;DHT22;516;51.482;7.120;2023-02-21T05:56:19;7.90;99.90
1055;DHT22;516;51.482;7.120;2023-02-21T06:02:07;7.80;99.90
1055;DHT22;516;51.482;7.120;2023-02-21T06:07:55;7.80;99.90
1055;DHT22;516;51.482;7.120;2023-02-21T06:13:42;7.90;99.90
1055;DHT22;516;51.482;7.120;2023-02-21T06:19:30;7.90;99.90
1055;DHT22;516;51.482;7.120;2023-02-21T06:25:00;7.80;99.90
1055;DHT22;516;51.482;7.120;2023-02-21T06:30:47;7.80;99.90
1055;DHT22;516;51.482;7.120;2023-02-21T06:36:35;7.80;99.90
1055;DHT22;516;51.482;7.120;2023-02-21T06:42:23;7.70;99.90
1055;DHT22;516;51.482;7.120;2023-02-21T06:48:14;7.70;99.90
1055;DHT22;516;51.482;7.120;2023-02-21T06:54:03;7.70;99.90
1055;DHT22;516;51.482;7.120;2023-02-21T06:59:51;7.70;99.90
1055;DHT22;516;51.482;7.120;2023-02-21T07:05:39;7.70;99.90
1055;DHT22;516;51.482;7.120;2023-02-21T07:11:27;7.70;99.90
1055;DHT22;516;51.482;7.120;2023-02-21T07:17:16;7.70;99.90
1055;DHT22;516;51.482;7.120;2023-02-21T07:32:57;7.80;99.90
1055;DHT22;516;51.482;7.120;2023-02-21T07:38:45;7.80;99.90
1055;DHT22;516;51.482;7.120;2023-02-21T07:44:33;7.80;99.90
1055;DHT22;516;51.482;7.120;2023-02-21T07:50:20;7.90;99.90
1055;DHT22;516;51.482;7.120;2023-02-21T07:56:10;7.80;99.90
1055;DHT22;516;51.482;7.120;2023-02-21T08:01:58;7.80;99.90
1055;DHT22;516;51.482;7.120;2023-02-21T08:07:47;7.60;99.90
1055;DHT22;516;51.482;7.120;2023-02-21T08:13:34;7.60;99.90
1055;DHT22;516;51.482;7.120;2023-02-21T08:19:22;7.60;99.90
1055;DHT22;516;51.482;7.120;2023-02-21T08:25:21;7.70;99.90
1055;DHT22;516;51.482;7.120;2023-02-21T08:31:08;7.70;99.90
1055;DHT22;516;51.482;7.120;2023-02-21T08:36:55;7.70;99.90
1055;DHT22;516;51.482;7.120;2023-02-21T08:42:42;7.60;99.90
1055;DHT22;516;51.482;7.120;2023-02-21T08:48:28;7.70;99.90
1055;DHT22;516;51.482;7.120;2023-02-21T08:54:15;7.60;99.90
1055;DHT22;516;51.482;7.120;2023-02-21T09:00:04;7.60;99.90
1055;DHT22;516;51.482;7.120;2023-02-21T09:05:58;7.60;99.90
1055;DHT22;516;51.482;7.120;2023-02-21T09:11:46;7.50;99.90
1055;DHT22;516;51.482;7.120;2023-02-21T09:17:35;7.50;99.90
1055;DHT22;516;51.482;7.120;2023-02-21T09:27:10;7.50;99.90
1055;DHT22;516;51.482;7.120;2023-02-21T09:32:58;7.60;99.90
1055;DHT22;516;51.482;7.120;2023-02-21T09:38:46;7.60;99.90
1055;DHT22;516;51.482;7.120;2023-02-21T09:44:34;7.80;99.90
1055;DHT22;516;51.482;7.120;2023-02-21T09:50:26;7.80;99.90
1055;DHT22;516;51.482;7.120;2023-02-21T10:03:09;8.00;99.90
1055;DHT22;516;51.482;7.120;2023-02-21T10:22:08;8.20;99.90
1055;DHT22;516;51.482;7.120;2023-02-21T10:28:21;8.30;99.90
1055;DHT22;516;51.482;7.120;2023-02-21T10:47:28;8.10;99.90
1055;DHT22;516;51.482;7.120;2023-02-21T10:53:43;8.20;99.90
1055;DHT22;516;51.482;7.120;2023-02-21T10:59:34;8.30;99.90
1055;DHT22;516;51.482;7.120;2023-02-21T11:05:23;8.40;99.90
1055;DHT22;516;51.482;7.120;2023-02-21T11:11:11;8.30;99.90
1055;DHT22;516;51.482;7.120;2023-02-21T11:33:00;8.60;99.90
1055;DHT22;516;51.482;7.120;2023-02-21T11:39:05;8.60;99.90
1055;DHT22;516;51.482;7.120;2023-02-21T11:44:36;9.10;99.90
1055;DHT22;516;51.482;7.120;2023-02-21T11:50:28;9.30;99.90
1055;DHT22;516;51.482;7.120;2023-02-21T12:50:51;9.90;99.90
1055;DHT22;516;51.482;7.120;2023-02-21T13:14:53;9.80;99.90
1055;DHT22;516;51.482;7.120;2023-02-21T13:30:41;9.90;99.90
1055;DHT22;516;51.482;7.120;2023-02-21T13:42:28;9.60;99.90
1055;DHT22;516;51.482;7.120;2023-02-21T13:48:25;9.50;99.90
1055;DHT22;516;51.482;7.120;2023-02-21T14:00:47;9.30;99.90
1055;DHT22;516;51.482;7.120;2023-02-21T14:06:36;9.30;99.90
1055;DHT22;516;51.482;7.120;2023-02-21T14:12:24;9.50;99.90
1055;DHT22;516;51.482;7.120;2023-02-21T14:18:19;9.40;99.90
1055;DHT22;516;51.482;7.120;2023-02-21T14:24:29;9.30;99.90
1055;DHT22;516;51.482;7.120;2023-02-21T14:33:33;9.20;99.90
1055;DHT22;516;51.482;7.120;2023-02-21T14:39:22;9.30;99.90
1055;DHT22;516;51.482;7.120;2023-02-21T15:16:31;9.20;99.90
1055;DHT22;516;51.482;7.120;2023-02-21T15:22:25;9.00;99.90
1055;DHT22;516;51.482;7.120;2023-02-21T15:34:52;8.80;99.90
1055;DHT22;516;51.482;7.120;2023-02-21T15:40:40;8.80;99.90
1055;DHT22;516;51.482;7.120;2023-02-21T15:46:41;8.90;99.90
1055;DHT22;516;51.482;7.120;2023-02-21T15:53:21;8.80;99.90
1055;DHT22;516;51.482;7.120;2023-02-21T15:59:16;8.70;99.90
1055;DHT22;516;51.482;7.120;2023-02-21T16:05:27;8.70;99.90
1055;DHT22;516;51.482;7.120;2023-02-21T16:11:15;8.70;99.90
1055;DHT22;516;51.482;7.120;2023-02-21T16:33:34;8.50;99.90
1055;DHT22;516;51.482;7.120;2023-02-21T16:39:22;8.70;99.90
1055;DHT22;516;51.482;7.120;2023-02-21T16:45:10;8.70;99.90
1055;DHT22;516;51.482;7.120;2023-02-21T16:51:04;8.60;99.90
1055;DHT22;516;51.482;7.120;2023-02-21T16:57:12;8.70;99.90
1055;DHT22;516;51.482;7.120;2023-02-21T17:03:00;8.60;99.90
1055;DHT22;516;51.482;7.120;2023-02-21T17:08:48;8.50;99.90
1055;DHT22;516;51.482;7.120;2023-02-21T17:14:36;8.50;99.90
1055;DHT22;516;51.482;7.120;2023-02-21T17:20:24;8.50;99.90
1055;DHT22;516;51.482;7.120;2023-02-21T17:26:12;8.40;99.90
1055;DHT22;516;51.482;7.120;2023-02-21T17:29:02;8.50;99.90
1055;DHT22;516;51.482;7.120;2023-02-21T17:31:28;8.40;99.90
1055;DHT22;516;51.482;7.120;2023-02-21T17:36:57;8.50;99.90
1055;DHT22;516;51.482;7.120;2023-02-21T17:42:45;8.50;99.90
1055;DHT22;516;51.482;7.120;2023-02-21T17:48:32;8.40;99.90
1055;DHT22;516;51.482;7.120;2023-02-21T17:54:22;8.40;99.90
1055;DHT22;516;51.482;7.120;2023-02-21T18:00:18;8.40;99.90
1055;DHT22;516;51.482;7.120;2023-02-21T18:06:24;8.30;99.90
1055;DHT22;516;51.482;7.120;2023-02-21T18:12:11;8.40;99.90
1055;DHT22;516;51.482;7.120;2023-02-21T18:17:59;8.40;99.90
1055;DHT22;516;51.482;7.120;2023-02-21T18:23:51;8.40;99.90
1055;DHT22;516;51.482;7.120;2023-02-21T18:33:34;8.40;99.90
1055;DHT22;516;51.482;7.120;2023-02-21T18:39:22;8.40;99.90
1055;DHT22;516;51.482;7.120;2023-02-21T18:45:11;8.40;99.90
1055;DHT22;516;51.482;7.120;2023-02-21T18:50:59;8.40;99.90
1055;DHT22;516;51.482;7.120;2023-02-21T18:56:50;8.40;99.90
1055;DHT22;516;51.482;7.120;2023-02-21T19:02:38;8.50;99.90
1055;DHT22;516;51.482;7.120;2023-02-21T19:08:26;8.40;99.90
1055;DHT22;516;51.482;7.120;2023-02-21T19:14:14;8.40;99.90
1055;DHT22;516;51.482;7.120;2023-02-21T19:20:03;8.50;99.90
1055;DHT22;516;51.482;7.120;2023-02-21T19:25:53;8.50;99.90
1055;DHT22;516;51.482;7.120;2023-02-21T19:31:28;8.50;99.90
1055;DHT22;516;51.482;7.120;2023-02-21T19:37:16;8.40;99.90
1055;DHT22;516;51.482;7.120;2023-02-21T19:43:04;8.50;99.90
1055;DHT22;516;51.482;7.120;2023-02-21T19:48:52;8.50;99.90
1055;DHT22;516;51.482;7.120;2023-02-21T19:54:40;8.50;99.90
1055;DHT22;516;51.482;7.120;2023-02-21T20:00:28;8.60;99.90
1055;DHT22;516;51.482;7.120;2023-02-21T20:06:17;8.50;99.90
1055;DHT22;516;51.482;7.120;2023-02-21T20:12:04;8.50;99.90
1055;DHT22;516;51.482;7.120;2023-02-21T20:17:52;8.50;99.90
1055;DHT22;516;51.482;7.120;2023-02-21T20:23:41;8.40;99.90
1055;DHT22;516;51.482;7.120;2023-02-21T20:39:25;8.40;99.90
1055;DHT22;516;51.482;7.120;2023-02-21T20:45:14;8.30;99.90
1055;DHT22;516;51.482;7.120;2023-02-21T20:51:02;8.20;99.90
1055;DHT22;516;51.482;7.120;2023-02-21T20:56:54;8.20;99.90
1055;DHT22;516;51.482;7.120;2023-02-21T21:02:43;8.20;99.90
1055;DHT22;516;51.482;7.120;2023-02-21T21:08:30;8.20;99.90
1055;DHT22;516;51.482;7.120;2023-02-21T21:14:18;8.00;99.90
1055;DHT22;516;51.482;7.120;2023-02-21T21:20:07;8.00;99.90
1055;DHT22;516;51.482;7.120;2023-02-21T21:25:56;8.10;99.90
1055;DHT22;516;51.482;7.120;2023-02-21T21:29:04;8.00;99.90
1055;DHT22;516;51.482;7.120;2023-02-21T21:35:05;8.00;99.90
1055;DHT22;516;51.482;7.120;2023-02-21T21:40:54;7.90;99.90
1055;DHT22;516;51.482;7.120;2023-02-21T21:46:44;7.90;99.90
1055;DHT22;516;51.482;7.120;2023-02-21T21:52:32;7.90;99.90
1055;DHT22;516;51.482;7.120;2023-02-21T21:58:20;7.80;99.90
1055;DHT22;516;51.482;7.120;2023-02-21T22:04:13;7.80;99.90
1055;DHT22;516;51.482;7.120;2023-02-21T22:10:00;7.80;99.90
1055;DHT22;516;51.482;7.120;2023-02-21T22:15:48;7.70;99.90
1055;DHT22;516;51.482;7.120;2023-02-21T22:21:36;7.60;99.90
1055;DHT22;516;51.482;7.120;2023-02-21T22:27:24;7.60;99.90
1055;DHT22;516;51.482;7.120;2023-02-21T22:33:00;7.60;99.90
1055;DHT22;516;51.482;7.120;2023-02-21T22:38:48;7.70;99.90
1055;DHT22;516;51.482;7.120;2023-02-21T22:44:36;7.60;99.90
1055;DHT22;516;51.482;7.120;2023-02-21T22:50:25;7.60;99.90
1055;DHT22;516;51.482;7.120;2023-02-21T22:56:13;7.60;99.90
1055;DHT22;516;51.482;7.120;2023-02-21T23:02:02;7.50;99.90
1055;DHT22;516;51.482;7.120;2023-02-21T23:07:51;7.50;99.90
1055;DHT22;516;51.482;7.120;2023-02-21T23:13:39;7.40;99.90
1055;DHT22;516;51.482;7.120;2023-02-21T23:19:28;7.30;99.90
1055;DHT22;516;51.482;7.120;2023-02-21T23:25:20;7.10;99.90
1055;DHT22;516;51.482;7.120;2023-02-21T23:35:05;6.40;99.90
1055;DHT22;516;51.482;7.120;2023-02-21T23:40:57;6.30;99.90
1055;DHT22;516;51.482;7.120;2023-02-21T23:46:44;6.20;99.90
1055;DHT22;516;51.482;7.120;2023-02-21T23:52:32;6.00;99.90
1055;DHT22;516;51.482;7.120;2023-02-21T23:58:20;5.90;99.90
